createdAt,value
2019-02-22T00:02:03.751Z,44.17
2019-02-22T00:04:43.281Z,41.07
2019-02-22T00:07:14.191Z,40.30
2019-02-22T00:09:49.453Z,42.57
2019-02-22T00:12:25.927Z,47.60
2019-02-22T00:14:55.443Z,42.83
2019-02-22T00:17:31.569Z,44.70
2019-02-22T00:20:01.224Z,42.77
2019-02-22T00:22:30.978Z,39.83
2019-02-22T00:25:02.715Z,45.73
2019-02-22T00:27:32.480Z,42.03
2019-02-22T00:30:14.621Z,48.97
2019-02-22T00:33:00.178Z,42.03
2019-02-22T00:35:47.260Z,43.53
2019-02-22T00:38:52.621Z,43.13
2019-02-22T00:41:44.898Z,43.83
2019-02-22T00:44:15.760Z,43.27
2019-02-22T00:46:57.898Z,40.27
2019-02-22T00:49:30.956Z,41.80
2019-02-22T00:52:16.572Z,43.27
2019-02-22T00:54:46.769Z,43.70
2019-02-22T00:57:16.479Z,43.57
2019-02-22T00:59:46.751Z,43.93
2019-02-22T01:02:19.788Z,40.80
2019-02-22T01:04:49.340Z,44.63
2019-02-22T01:07:31.114Z,44.37
2019-02-22T01:10:02.816Z,40.43
2019-02-22T01:12:37.158Z,42.83
2019-02-22T01:15:11.245Z,42.83
2019-02-22T01:17:43.000Z,51.93
2019-02-22T01:20:30.334Z,45.20
2019-02-22T01:23:00.628Z,48.33
2019-02-22T01:25:32.291Z,46.90
2019-02-22T01:28:09.858Z,46.60
2019-02-22T01:31:03.166Z,48.93
2019-02-22T01:33:35.593Z,44.50
2019-02-22T01:36:10.273Z,43.98
2019-02-22T01:38:52.952Z,51.57
2019-02-22T01:41:44.693Z,43.27
2019-02-22T01:44:23.508Z,41.03
2019-02-22T01:46:53.222Z,42.83
2019-02-22T01:49:25.283Z,46.10
2019-02-22T01:52:05.037Z,50.10
2019-02-22T01:54:43.314Z,48.13
2019-02-22T01:57:40.597Z,47.73
2019-02-22T02:00:21.773Z,43.35
2019-02-22T02:02:52.501Z,46.20
2019-02-22T02:05:24.369Z,46.07
2019-02-22T02:07:55.191Z,46.50
2019-02-22T02:10:27.115Z,46.67
2019-02-22T02:13:10.931Z,48.57
2019-02-22T02:15:45.925Z,40.83
2019-02-22T02:18:15.923Z,44.10
2019-02-22T02:20:46.055Z,45.30
2019-02-22T02:23:17.885Z,49.30
2019-02-22T02:25:48.443Z,43.30
2019-02-22T02:28:18.043Z,51.93
2019-02-22T02:31:24.076Z,49.40
2019-02-22T02:33:59.496Z,49.50
2019-02-22T02:36:30.030Z,49.50
2019-02-22T02:39:05.950Z,48.30
2019-02-22T02:41:35.614Z,48.63
2019-02-22T02:44:05.985Z,57.55
2019-02-22T02:46:38.256Z,48.43
2019-02-22T02:49:07.775Z,49.87
2019-02-22T02:51:42.881Z,55.20
2019-02-22T02:54:16.441Z,48.87
2019-02-22T02:56:47.147Z,48.27
2019-02-22T02:59:18.743Z,55.07
2019-02-22T03:01:49.388Z,44.53
2019-02-22T03:04:21.655Z,50.63
2019-02-22T03:07:20.445Z,50.30
2019-02-22T03:09:51.036Z,44.67
2019-02-22T03:12:24.806Z,53.90
2019-02-22T03:14:57.458Z,50.77
2019-02-22T03:17:37.253Z,47.60
2019-02-22T03:20:17.376Z,49.90
2019-02-22T03:22:49.261Z,52.27
2019-02-22T03:25:27.534Z,51.07
2019-02-22T03:27:58.027Z,57.27
2019-02-22T03:30:32.883Z,52.93
2019-02-22T03:33:03.639Z,51.33
2019-02-22T03:35:36.648Z,49.83
2019-02-22T03:38:13.622Z,52.67
2019-02-22T03:41:08.905Z,45.93
2019-02-22T03:43:38.907Z,53.10
2019-02-22T03:46:10.655Z,49.13
2019-02-22T03:48:43.096Z,54.73
2019-02-22T03:51:37.054Z,50.27
2019-02-22T03:54:25.585Z,47.87
2019-02-22T04:00:45.817Z,43.23
2019-02-22T04:03:41.338Z,44.43
2019-02-22T04:06:34.635Z,45.33
2019-02-22T04:09:14.263Z,46.33
2019-02-22T04:11:47.748Z,48.00
2019-02-22T04:14:36.761Z,46.80
2019-02-22T04:17:11.570Z,54.40
2019-02-22T04:20:00.500Z,49.47
2019-02-22T04:22:40.268Z,48.10
2019-02-22T04:25:19.098Z,50.17
2019-02-22T04:28:08.100Z,48.53
2019-02-22T04:30:38.935Z,48.00
2019-02-22T04:33:22.679Z,52.23
2019-02-22T04:35:53.914Z,47.87
2019-02-22T04:38:24.474Z,56.30
2019-02-22T04:41:07.480Z,48.43
2019-02-22T04:43:45.966Z,53.70
2019-02-22T04:46:52.396Z,45.77
2019-02-22T04:49:25.142Z,47.97
2019-02-22T04:51:57.298Z,47.80
2019-02-22T04:54:44.210Z,42.83
2019-02-22T04:57:30.645Z,45.70
2019-02-22T05:00:04.914Z,46.47
2019-02-22T05:02:35.394Z,46.40
2019-02-22T05:05:07.969Z,48.60
2019-02-22T05:07:45.868Z,45.57
2019-02-22T05:10:17.092Z,44.63
2019-02-22T05:12:48.850Z,50.07
2019-02-22T05:15:20.175Z,47.40
2019-02-22T05:17:57.764Z,52.93
2019-02-22T05:20:27.354Z,50.27
2019-02-22T05:23:03.827Z,49.10
2019-02-22T05:25:31.617Z,56.87
2019-02-22T05:28:07.112Z,52.17
2019-02-22T05:30:53.818Z,45.80
2019-02-22T05:33:27.692Z,50.37
2019-02-22T05:36:08.564Z,55.40
2019-02-22T05:38:40.473Z,57.57
2019-02-22T05:41:15.204Z,51.90
2019-02-22T05:43:51.539Z,48.33
2019-02-22T05:46:23.368Z,52.90
2019-02-22T05:48:57.302Z,51.37
2019-02-22T05:51:26.818Z,49.30
2019-02-22T05:54:07.280Z,47.30
2019-02-22T05:56:49.102Z,52.43
2019-02-22T05:59:19.809Z,51.73
2019-02-22T06:01:53.423Z,51.53
2019-02-22T06:05:03.374Z,47.73
2019-02-22T06:11:17.597Z,53.30
2019-02-22T06:13:52.833Z,52.83
2019-02-22T06:16:51.221Z,56.57
2019-02-22T06:19:21.297Z,55.17
2019-02-22T06:21:54.907Z,57.50
2019-02-22T06:24:25.861Z,46.10
2019-02-22T06:26:57.428Z,54.43
2019-02-22T06:30:24.468Z,52.15
2019-02-22T06:33:20.596Z,56.13
2019-02-22T06:41:00.370Z,52.80
2019-02-22T06:47:44.471Z,56.73
2019-02-22T06:50:41.393Z,51.70
2019-02-22T07:11:44.061Z,54.23
2019-02-22T07:14:21.937Z,52.90
2019-02-22T07:16:58.230Z,49.67
2019-02-22T07:19:39.630Z,54.40
2019-02-22T07:22:22.390Z,51.30
2019-02-22T07:24:53.550Z,56.17
2019-02-22T07:27:38.334Z,56.90
2019-02-22T07:30:13.307Z,48.47
2019-02-22T07:32:45.378Z,53.20
2019-02-22T07:35:33.372Z,56.00
2019-02-22T07:38:03.029Z,58.73
2019-02-22T07:40:59.073Z,62.80
2019-02-22T07:44:02.522Z,61.47
2019-02-22T07:46:33.526Z,53.37
2019-02-22T07:49:04.901Z,49.27
2019-02-22T07:51:35.597Z,49.60
2019-02-22T07:54:06.919Z,52.03
2019-02-22T07:56:38.895Z,53.50
2019-02-22T07:59:10.154Z,50.80
2019-02-22T08:01:47.223Z,51.13
2019-02-22T08:04:13.435Z,53.40
2019-02-22T08:06:45.248Z,52.00
2019-02-22T08:09:15.241Z,52.70
2019-02-22T08:11:47.408Z,44.20
2019-02-22T08:14:17.645Z,42.73
2019-02-22T08:16:47.368Z,55.47
2019-02-22T08:19:22.930Z,41.45
2019-02-22T08:21:52.835Z,46.63
2019-02-22T08:24:22.770Z,47.83
2019-02-22T08:26:52.368Z,42.17
2019-02-22T08:29:23.005Z,47.63
2019-02-22T08:31:56.669Z,48.50
2019-02-22T08:34:27.184Z,46.37
2019-02-22T08:36:57.031Z,43.10
2019-02-22T08:39:27.767Z,50.00
2019-02-22T08:41:57.733Z,55.70
2019-02-22T08:44:29.805Z,52.03
2019-02-22T08:46:59.629Z,49.53
2019-02-22T08:49:36.560Z,50.83
2019-02-22T08:52:08.007Z,52.53
2019-02-22T08:54:46.662Z,48.90
2019-02-22T08:57:10.123Z,52.70
2019-02-22T08:59:41.751Z,53.50
2019-02-22T09:02:11.760Z,52.70
2019-02-22T09:04:41.257Z,48.90
2019-02-22T09:07:13.191Z,55.93
2019-02-22T09:09:44.005Z,56.17
2019-02-22T09:12:13.702Z,48.10
2019-02-22T09:14:45.434Z,54.57
2019-02-22T09:17:16.106Z,51.83
2019-02-22T09:19:46.802Z,44.43
2019-02-22T09:22:22.772Z,46.07
2019-02-22T09:24:48.299Z,48.00
2019-02-22T09:27:18.135Z,51.90
2019-02-22T09:29:58.477Z,41.90
2019-02-22T09:32:21.387Z,44.57
2019-02-22T09:34:51.286Z,47.77
2019-02-22T09:37:21.200Z,49.63
2019-02-22T09:39:51.866Z,46.10
2019-02-22T09:42:22.232Z,48.07
2019-02-22T09:44:54.047Z,46.93
2019-02-22T09:47:23.766Z,45.70
2019-02-22T09:49:55.508Z,40.43
2019-02-22T09:52:25.568Z,49.03
2019-02-22T09:54:56.226Z,42.67
2019-02-22T09:57:26.100Z,44.00
2019-02-22T09:59:57.751Z,46.67
2019-02-22T10:02:28.602Z,43.33
2019-02-22T10:05:00.530Z,44.57
2019-02-22T10:07:31.237Z,48.30
2019-02-22T10:10:08.153Z,42.07
2019-02-22T10:12:40.394Z,40.90
2019-02-22T10:15:11.143Z,45.60
2019-02-22T10:17:40.811Z,45.20
2019-02-22T10:20:12.037Z,44.70
2019-02-22T10:22:42.731Z,42.23
2019-02-22T10:25:12.359Z,40.03
2019-02-22T10:27:41.755Z,43.73
2019-02-22T10:30:13.828Z,45.07
2019-02-22T10:32:43.262Z,43.80
2019-02-22T10:35:16.559Z,49.23
2019-02-22T10:37:46.550Z,44.20
2019-02-22T10:40:17.048Z,44.67
2019-02-22T10:42:50.812Z,45.67
2019-02-22T10:45:28.471Z,44.70
2019-02-22T10:47:57.995Z,40.63
2019-02-22T10:50:28.764Z,45.50
2019-02-22T10:53:02.082Z,42.33
2019-02-22T10:55:32.125Z,43.40
2019-02-22T10:58:01.960Z,44.33
2019-02-22T11:00:31.607Z,49.00
2019-02-22T11:03:02.414Z,45.03
2019-02-22T11:05:31.791Z,42.93
2019-02-22T11:08:08.116Z,45.00
2019-02-22T11:10:37.831Z,43.70
2019-02-22T11:13:09.381Z,53.33
2019-02-22T11:15:43.146Z,46.70
2019-02-22T11:18:40.651Z,43.93
2019-02-22T11:21:11.280Z,43.47
2019-02-22T11:27:54.722Z,48.80
2019-02-22T11:31:27.854Z,48.97
2019-02-22T11:33:59.666Z,52.87
2019-02-22T11:36:38.324Z,47.47
2019-02-22T11:39:10.105Z,49.13
2019-02-22T11:41:41.493Z,54.50
2019-02-22T11:44:16.307Z,51.20
2019-02-22T11:46:48.992Z,48.90
2019-02-22T11:49:18.876Z,48.13
2019-02-22T11:51:48.587Z,50.13
2019-02-22T11:54:21.974Z,48.17
2019-02-22T11:56:52.466Z,47.43
2019-02-22T11:59:21.851Z,45.50
2019-02-22T12:01:53.640Z,47.97
2019-02-22T12:04:36.137Z,55.57
2019-02-22T12:07:05.648Z,53.40
2019-02-22T12:09:35.190Z,52.07
2019-02-22T12:12:06.765Z,47.07
2019-02-22T12:14:36.604Z,47.17
2019-02-22T12:17:06.044Z,45.37
2019-02-22T12:19:37.509Z,47.83
2019-02-22T12:22:07.973Z,47.07
2019-02-22T12:29:25.613Z,50.50
2019-02-22T12:31:55.444Z,48.80
2019-02-22T12:34:26.137Z,42.53
2019-02-22T12:37:03.611Z,50.77
2019-02-22T12:39:33.715Z,52.17
2019-02-22T12:42:03.798Z,46.13
2019-02-22T12:44:40.311Z,52.07
2019-02-22T12:47:47.904Z,51.60
2019-02-22T12:50:29.326Z,49.90
2019-02-22T12:57:15.643Z,53.87
2019-02-22T13:00:06.277Z,47.53
2019-02-22T13:03:19.658Z,49.40
2019-02-22T13:05:49.326Z,46.30
2019-02-22T13:08:42.334Z,48.43
2019-02-22T13:11:48.650Z,43.80
2019-02-22T13:14:31.924Z,40.23
2019-02-22T13:17:05.958Z,40.27
2019-02-22T13:20:04.949Z,40.20
2019-02-22T13:22:52.936Z,39.83
2019-02-22T13:25:23.521Z,46.67
2019-02-22T13:28:05.252Z,36.87
2019-02-22T13:30:59.942Z,42.23
2019-02-22T13:33:45.458Z,45.37
2019-02-22T13:36:18.750Z,40.30
2019-02-22T13:38:52.350Z,37.77
2019-02-22T13:41:35.302Z,40.63
2019-02-22T13:44:08.744Z,38.97
2019-02-22T13:47:14.064Z,38.07
2019-02-22T13:49:45.958Z,43.53
2019-02-22T13:52:31.410Z,43.60
2019-02-22T13:55:41.948Z,42.53
2019-02-22T13:58:15.066Z,37.40
2019-02-22T14:00:49.309Z,35.07
2019-02-22T14:03:31.787Z,36.37
2019-02-22T14:06:03.166Z,35.93
2019-02-22T14:08:42.434Z,38.63
2019-02-22T14:11:15.182Z,32.33
2019-02-22T14:13:47.776Z,36.13
2019-02-22T14:20:07.043Z,35.43
2019-02-22T14:22:50.091Z,36.70
2019-02-22T14:25:55.985Z,37.60
2019-02-22T14:28:31.533Z,34.37
2019-02-22T14:31:33.725Z,34.03
2019-02-22T14:34:09.011Z,38.53
2019-02-22T14:36:43.423Z,37.47
2019-02-22T14:39:32.191Z,34.48
2019-02-22T14:42:02.703Z,35.97
2019-02-22T14:45:02.868Z,37.73
2019-02-22T15:24:34.751Z,35.13
2019-02-22T15:27:07.626Z,33.57
2019-02-22T15:29:39.254Z,33.73
2019-02-22T15:32:10.058Z,37.70
2019-02-22T15:34:46.490Z,37.20
2019-02-22T15:37:17.668Z,39.40
2019-02-22T15:39:47.503Z,40.07
2019-02-22T15:42:20.271Z,36.47
2019-02-22T15:44:52.719Z,39.73
2019-02-22T15:47:22.607Z,38.07
2019-02-22T15:50:25.241Z,44.07
2019-02-22T15:53:02.456Z,40.20
2019-02-22T15:56:06.788Z,38.83
2019-02-22T15:58:42.154Z,46.67
2019-02-22T16:01:17.675Z,38.20
2019-02-22T16:11:44.358Z,39.10
2019-02-22T16:16:52.165Z,39.20
2019-02-22T16:19:32.093Z,36.80
2019-02-22T16:22:03.005Z,35.43
2019-02-22T16:24:43.598Z,40.03
2019-02-22T16:27:19.019Z,42.07
2019-02-22T16:32:58.137Z,37.03
2019-02-22T16:35:37.091Z,44.00
2019-02-22T16:38:15.913Z,42.73
2019-02-22T16:41:35.543Z,43.47
2019-02-22T16:44:33.119Z,42.00
2019-02-22T16:47:03.865Z,41.17
2019-02-22T16:50:07.251Z,42.40
2019-02-22T16:52:48.299Z,39.23
2019-02-22T16:55:27.808Z,39.93
2019-02-22T16:58:03.578Z,42.00
2019-02-22T17:00:55.617Z,43.60
2019-02-22T17:04:06.785Z,42.20
2019-02-22T17:07:01.001Z,38.53
2019-02-22T17:09:37.065Z,47.20
2019-02-22T17:12:23.509Z,45.40
2019-02-22T17:14:50.125Z,41.70
2019-02-22T17:17:20.041Z,41.33
2019-02-22T17:19:52.100Z,41.70
2019-02-22T17:22:36.668Z,40.53
2019-02-22T17:25:07.830Z,38.53
2019-02-22T17:27:55.855Z,45.43
2019-02-22T17:30:46.200Z,43.20
2019-02-22T17:33:17.648Z,42.27
2019-02-22T17:35:48.234Z,41.47
2019-02-22T17:38:18.842Z,53.63
2019-02-22T17:40:48.379Z,42.47
2019-02-22T17:43:17.989Z,39.80
2019-02-22T17:45:48.770Z,44.77
2019-02-22T17:48:19.335Z,40.60
2019-02-22T17:51:12.598Z,45.73
2019-02-22T17:53:49.116Z,44.83
2019-02-22T17:56:20.006Z,44.27
2019-02-22T17:59:36.770Z,48.63
2019-02-22T18:02:17.897Z,44.67
2019-02-22T18:04:53.079Z,40.77
2019-02-22T18:07:36.221Z,39.43
2019-02-22T18:13:41.420Z,43.13
2019-02-22T18:16:11.736Z,50.60
2019-02-22T18:18:46.154Z,41.50
2019-02-22T18:21:16.491Z,42.40
2019-02-22T18:23:48.751Z,42.00
2019-02-22T18:26:18.472Z,39.93
2019-02-22T18:28:48.010Z,46.17
2019-02-22T18:31:59.767Z,42.97
2019-02-22T18:34:34.701Z,49.57
2019-02-22T18:37:29.998Z,56.53
2019-02-22T18:40:40.174Z,59.87
2019-02-22T18:46:43.573Z,44.90
2019-02-22T18:49:20.471Z,45.03
2019-02-22T18:59:45.967Z,39.17
2019-02-22T19:33:15.368Z,41.00
2019-02-22T20:04:20.480Z,43.63
2019-02-22T22:19:49.935Z,28.33
2019-02-22T22:27:06.894Z,29.23
2019-02-22T22:29:41.172Z,27.47
2019-02-22T22:32:13.160Z,29.93
2019-02-22T22:34:53.969Z,30.07
2019-02-22T22:37:44.512Z,31.57
2019-02-22T23:08:44.623Z,34.00
2019-02-22T23:11:45.197Z,33.60
2019-02-22T23:14:22.735Z,34.40
